sensor_id;sensor_type;location;lat;lon;timestamp;P1;durP1;ratioP1;P2;durP2;ratioP2
56201;SDS011;42117;50.360;3.508;2023-05-07T00:01:54;7.20;;;3.70;;
56201;SDS011;42117;50.360;3.508;2023-05-07T00:04:20;9.20;;;4.15;;
56201;SDS011;42117;50.360;3.508;2023-05-07T00:06:46;6.80;;;3.60;;
56201;SDS011;42117;50.360;3.508;2023-05-07T00:09:12;9.30;;;3.72;;
56201;SDS011;42117;50.360;3.508;2023-05-07T00:11:39;4.20;;;3.50;;
56201;SDS011;42117;50.360;3.508;2023-05-07T00:14:05;6.10;;;3.65;;
56201;SDS011;42117;50.360;3.508;2023-05-07T00:16:31;10.73;;;3.75;;
56201;SDS011;42117;50.360;3.508;2023-05-07T00:18:57;8.63;;;3.38;;
56201;SDS011;42117;50.360;3.508;2023-05-07T00:21:23;7.10;;;4.05;;
56201;SDS011;42117;50.360;3.508;2023-05-07T00:23:51;8.40;;;3.63;;
56201;SDS011;42117;50.360;3.508;2023-05-07T00:26:18;6.72;;;3.75;;
56201;SDS011;42117;50.360;3.508;2023-05-07T00:28:44;4.70;;;3.40;;
56201;SDS011;42117;50.360;3.508;2023-05-07T00:31:10;6.72;;;3.75;;
56201;SDS011;42117;50.360;3.508;2023-05-07T00:33:36;9.60;;;3.95;;
56201;SDS011;42117;50.360;3.508;2023-05-07T00:36:02;9.65;;;4.13;;
56201;SDS011;42117;50.360;3.508;2023-05-07T00:38:28;5.78;;;3.70;;
56201;SDS011;42117;50.360;3.508;2023-05-07T00:40:54;10.55;;;3.60;;
56201;SDS011;42117;50.360;3.508;2023-05-07T00:43:20;8.60;;;3.65;;
56201;SDS011;42117;50.360;3.508;2023-05-07T00:45:46;8.73;;;3.67;;
56201;SDS011;42117;50.360;3.508;2023-05-07T00:48:12;5.80;;;3.60;;
56201;SDS011;42117;50.360;3.508;2023-05-07T00:50:39;6.50;;;3.72;;
56201;SDS011;42117;50.360;3.508;2023-05-07T00:53:05;6.18;;;3.60;;
56201;SDS011;42117;50.360;3.508;2023-05-07T00:55:32;3.70;;;2.92;;
56201;SDS011;42117;50.360;3.508;2023-05-07T00:57:58;10.55;;;4.38;;
56201;SDS011;42117;50.360;3.508;2023-05-07T01:00:24;3.53;;;3.22;;
56201;SDS011;42117;50.360;3.508;2023-05-07T01:02:50;5.65;;;3.50;;
56201;SDS011;42117;50.360;3.508;2023-05-07T01:05:17;5.75;;;3.30;;
56201;SDS011;42117;50.360;3.508;2023-05-07T01:07:44;3.88;;;2.95;;
56201;SDS011;42117;50.360;3.508;2023-05-07T01:10:11;5.97;;;3.13;;
56201;SDS011;42117;50.360;3.508;2023-05-07T01:12:37;8.35;;;3.72;;
56201;SDS011;42117;50.360;3.508;2023-05-07T01:15:05;6.75;;;3.40;;
56201;SDS011;42117;50.360;3.508;2023-05-07T01:17:35;8.15;;;3.80;;
56201;SDS011;42117;50.360;3.508;2023-05-07T01:20:01;7.03;;;3.33;;
56201;SDS011;42117;50.360;3.508;2023-05-07T01:22:35;9.97;;;3.37;;
56201;SDS011;42117;50.360;3.508;2023-05-07T01:25:02;6.80;;;3.17;;
56201;SDS011;42117;50.360;3.508;2023-05-07T01:27:28;3.75;;;3.33;;
56201;SDS011;42117;50.360;3.508;2023-05-07T01:29:54;6.05;;;3.60;;
56201;SDS011;42117;50.360;3.508;2023-05-07T01:33:04;9.25;;;3.70;;
56201;SDS011;42117;50.360;3.508;2023-05-07T01:35:11;9.38;;;3.78;;
56201;SDS011;42117;50.360;3.508;2023-05-07T01:37:37;6.68;;;3.60;;
56201;SDS011;42117;50.360;3.508;2023-05-07T01:40:04;9.13;;;3.72;;
56201;SDS011;42117;50.360;3.508;2023-05-07T01:42:30;5.55;;;3.53;;
56201;SDS011;42117;50.360;3.508;2023-05-07T01:44:57;5.18;;;3.92;;
56201;SDS011;42117;50.360;3.508;2023-05-07T01:47:23;3.88;;;3.58;;
56201;SDS011;42117;50.360;3.508;2023-05-07T01:49:49;8.52;;;3.67;;
56201;SDS011;42117;50.360;3.508;2023-05-07T01:52:15;5.15;;;3.78;;
56201;SDS011;42117;50.360;3.508;2023-05-07T01:54:41;6.35;;;3.85;;
56201;SDS011;42117;50.360;3.508;2023-05-07T01:57:07;13.50;;;4.13;;
56201;SDS011;42117;50.360;3.508;2023-05-07T01:59:33;5.93;;;4.03;;
56201;SDS011;42117;50.360;3.508;2023-05-07T02:02:00;5.35;;;3.53;;
56201;SDS011;42117;50.360;3.508;2023-05-07T02:04:26;8.30;;;3.70;;
56201;SDS011;42117;50.360;3.508;2023-05-07T02:06:52;4.75;;;3.35;;
56201;SDS011;42117;50.360;3.508;2023-05-07T02:09:18;4.88;;;3.45;;
56201;SDS011;42117;50.360;3.508;2023-05-07T02:11:44;4.43;;;3.47;;
56201;SDS011;42117;50.360;3.508;2023-05-07T02:14:10;4.60;;;3.58;;
56201;SDS011;42117;50.360;3.508;2023-05-07T02:16:36;6.80;;;3.90;;
56201;SDS011;42117;50.360;3.508;2023-05-07T02:19:02;4.75;;;3.17;;
56201;SDS011;42117;50.360;3.508;2023-05-07T02:21:28;4.78;;;3.47;;
56201;SDS011;42117;50.360;3.508;2023-05-07T02:23:54;8.25;;;3.63;;
56201;SDS011;42117;50.360;3.508;2023-05-07T02:26:20;3.20;;;2.90;;
56201;SDS011;42117;50.360;3.508;2023-05-07T02:28:46;5.63;;;3.30;;
56201;SDS011;42117;50.360;3.508;2023-05-07T02:31:12;7.17;;;3.10;;
56201;SDS011;42117;50.360;3.508;2023-05-07T02:33:38;4.00;;;2.90;;
56201;SDS011;42117;50.360;3.508;2023-05-07T02:36:10;5.90;;;3.07;;
56201;SDS011;42117;50.360;3.508;2023-05-07T02:38:36;5.97;;;3.10;;
56201;SDS011;42117;50.360;3.508;2023-05-07T02:41:02;5.75;;;2.92;;
56201;SDS011;42117;50.360;3.508;2023-05-07T02:43:28;8.80;;;3.65;;
56201;SDS011;42117;50.360;3.508;2023-05-07T02:46:04;5.28;;;3.47;;
56201;SDS011;42117;50.360;3.508;2023-05-07T02:48:30;8.27;;;3.25;;
56201;SDS011;42117;50.360;3.508;2023-05-07T02:50:57;6.78;;;3.03;;
56201;SDS011;42117;50.360;3.508;2023-05-07T02:53:23;5.03;;;2.97;;
56201;SDS011;42117;50.360;3.508;2023-05-07T02:55:51;4.28;;;2.88;;
56201;SDS011;42117;50.360;3.508;2023-05-07T02:58:17;5.17;;;2.87;;
56201;SDS011;42117;50.360;3.508;2023-05-07T03:00:43;4.90;;;2.78;;
56201;SDS011;42117;50.360;3.508;2023-05-07T03:03:09;5.63;;;2.80;;
56201;SDS011;42117;50.360;3.508;2023-05-07T03:05:36;3.30;;;2.65;;
56201;SDS011;42117;50.360;3.508;2023-05-07T03:08:02;3.50;;;2.72;;
56201;SDS011;42117;50.360;3.508;2023-05-07T03:10:29;5.45;;;2.55;;
56201;SDS011;42117;50.360;3.508;2023-05-07T03:12:55;6.28;;;2.88;;
56201;SDS011;42117;50.360;3.508;2023-05-07T03:15:21;5.10;;;2.70;;
56201;SDS011;42117;50.360;3.508;2023-05-07T03:17:47;3.72;;;2.90;;
56201;SDS011;42117;50.360;3.508;2023-05-07T03:20:13;6.17;;;2.60;;
56201;SDS011;42117;50.360;3.508;2023-05-07T03:22:39;4.17;;;3.23;;
56201;SDS011;42117;50.360;3.508;2023-05-07T03:25:06;6.67;;;3.37;;
56201;SDS011;42117;50.360;3.508;2023-05-07T03:27:32;4.63;;;3.10;;
56201;SDS011;42117;50.360;3.508;2023-05-07T03:29:58;5.70;;;2.95;;
56201;SDS011;42117;50.360;3.508;2023-05-07T03:32:24;8.23;;;3.15;;
56201;SDS011;42117;50.360;3.508;2023-05-07T03:34:50;6.17;;;3.47;;
56201;SDS011;42117;50.360;3.508;2023-05-07T03:37:16;7.57;;;3.28;;
56201;SDS011;42117;50.360;3.508;2023-05-07T03:39:42;3.58;;;2.70;;
56201;SDS011;42117;50.360;3.508;2023-05-07T03:42:11;2.90;;;2.70;;
56201;SDS011;42117;50.360;3.508;2023-05-07T03:44:37;4.53;;;3.38;;
56201;SDS011;42117;50.360;3.508;2023-05-07T03:47:03;4.03;;;3.05;;
56201;SDS011;42117;50.360;3.508;2023-05-07T03:49:29;5.63;;;3.50;;
56201;SDS011;42117;50.360;3.508;2023-05-07T03:51:55;3.33;;;3.08;;
56201;SDS011;42117;50.360;3.508;2023-05-07T03:54:21;6.25;;;3.70;;
56201;SDS011;42117;50.360;3.508;2023-05-07T03:56:47;5.95;;;3.50;;
56201;SDS011;42117;50.360;3.508;2023-05-07T03:59:13;7.53;;;3.88;;
56201;SDS011;42117;50.360;3.508;2023-05-07T04:01:39;5.88;;;3.58;;
56201;SDS011;42117;50.360;3.508;2023-05-07T04:04:06;6.85;;;4.07;;
56201;SDS011;42117;50.360;3.508;2023-05-07T04:06:32;5.32;;;4.03;;
56201;SDS011;42117;50.360;3.508;2023-05-07T04:08:58;4.88;;;4.07;;
56201;SDS011;42117;50.360;3.508;2023-05-07T04:11:24;9.38;;;5.30;;
56201;SDS011;42117;50.360;3.508;2023-05-07T04:13:50;4.43;;;4.03;;
56201;SDS011;42117;50.360;3.508;2023-05-07T04:16:16;4.70;;;3.95;;
56201;SDS011;42117;50.360;3.508;2023-05-07T04:18:42;4.88;;;4.05;;
56201;SDS011;42117;50.360;3.508;2023-05-07T04:21:18;5.40;;;4.35;;
56201;SDS011;42117;50.360;3.508;2023-05-07T04:23:45;5.10;;;4.07;;
56201;SDS011;42117;50.360;3.508;2023-05-07T04:26:12;6.88;;;4.25;;
56201;SDS011;42117;50.360;3.508;2023-05-07T04:28:38;5.93;;;4.00;;
56201;SDS011;42117;50.360;3.508;2023-05-07T04:31:04;5.05;;;4.40;;
56201;SDS011;42117;50.360;3.508;2023-05-07T04:33:31;6.57;;;4.43;;
56201;SDS011;42117;50.360;3.508;2023-05-07T04:35:58;5.20;;;4.45;;
56201;SDS011;42117;50.360;3.508;2023-05-07T04:38:27;7.10;;;4.82;;
56201;SDS011;42117;50.360;3.508;2023-05-07T04:40:54;6.75;;;4.82;;
56201;SDS011;42117;50.360;3.508;2023-05-07T04:43:20;7.53;;;4.65;;
56201;SDS011;42117;50.360;3.508;2023-05-07T04:45:46;6.93;;;4.78;;
56201;SDS011;42117;50.360;3.508;2023-05-07T04:48:14;7.88;;;4.57;;
56201;SDS011;42117;50.360;3.508;2023-05-07T04:50:40;8.95;;;3.90;;
56201;SDS011;42117;50.360;3.508;2023-05-07T04:53:06;6.05;;;4.25;;
56201;SDS011;42117;50.360;3.508;2023-05-07T04:55:32;7.80;;;4.72;;
56201;SDS011;42117;50.360;3.508;2023-05-07T04:57:58;9.55;;;4.68;;
56201;SDS011;42117;50.360;3.508;2023-05-07T05:00:26;10.13;;;5.40;;
56201;SDS011;42117;50.360;3.508;2023-05-07T05:02:52;9.52;;;4.78;;
56201;SDS011;42117;50.360;3.508;2023-05-07T05:05:18;6.80;;;4.97;;
56201;SDS011;42117;50.360;3.508;2023-05-07T05:07:44;9.93;;;5.10;;
56201;SDS011;42117;50.360;3.508;2023-05-07T05:10:10;9.38;;;5.45;;
56201;SDS011;42117;50.360;3.508;2023-05-07T05:12:36;8.93;;;4.78;;
56201;SDS011;42117;50.360;3.508;2023-05-07T05:15:03;11.45;;;5.45;;
56201;SDS011;42117;50.360;3.508;2023-05-07T05:17:29;8.40;;;5.32;;
56201;SDS011;42117;50.360;3.508;2023-05-07T05:19:55;10.00;;;5.70;;
56201;SDS011;42117;50.360;3.508;2023-05-07T05:22:21;6.97;;;5.50;;
56201;SDS011;42117;50.360;3.508;2023-05-07T05:24:47;8.20;;;5.43;;
56201;SDS011;42117;50.360;3.508;2023-05-07T05:27:13;10.38;;;6.00;;
56201;SDS011;42117;50.360;3.508;2023-05-07T05:29:39;8.95;;;5.25;;
56201;SDS011;42117;50.360;3.508;2023-05-07T05:32:05;8.27;;;6.13;;
56201;SDS011;42117;50.360;3.508;2023-05-07T05:34:31;8.45;;;5.43;;
56201;SDS011;42117;50.360;3.508;2023-05-07T05:36:58;10.68;;;6.07;;
56201;SDS011;42117;50.360;3.508;2023-05-07T05:39:24;11.77;;;6.93;;
56201;SDS011;42117;50.360;3.508;2023-05-07T05:41:50;10.85;;;6.43;;
56201;SDS011;42117;50.360;3.508;2023-05-07T05:44:16;10.55;;;6.50;;
56201;SDS011;42117;50.360;3.508;2023-05-07T05:46:42;8.73;;;6.30;;
56201;SDS011;42117;50.360;3.508;2023-05-07T05:49:08;8.27;;;6.20;;
56201;SDS011;42117;50.360;3.508;2023-05-07T05:51:34;11.43;;;6.57;;
56201;SDS011;42117;50.360;3.508;2023-05-07T05:54:00;9.48;;;6.65;;
56201;SDS011;42117;50.360;3.508;2023-05-07T05:56:26;10.90;;;6.87;;
56201;SDS011;42117;50.360;3.508;2023-05-07T05:58:52;11.87;;;6.53;;
56201;SDS011;42117;50.360;3.508;2023-05-07T06:01:18;11.30;;;5.63;;
56201;SDS011;42117;50.360;3.508;2023-05-07T06:03:45;8.38;;;6.07;;
56201;SDS011;42117;50.360;3.508;2023-05-07T06:06:11;9.25;;;5.72;;
56201;SDS011;42117;50.360;3.508;2023-05-07T06:08:37;9.20;;;5.80;;
56201;SDS011;42117;50.360;3.508;2023-05-07T06:11:03;7.93;;;5.30;;
56201;SDS011;42117;50.360;3.508;2023-05-07T06:13:29;7.23;;;5.47;;
56201;SDS011;42117;50.360;3.508;2023-05-07T06:15:55;8.98;;;6.20;;
56201;SDS011;42117;50.360;3.508;2023-05-07T06:18:21;7.50;;;5.53;;
56201;SDS011;42117;50.360;3.508;2023-05-07T06:20:47;9.07;;;5.43;;
56201;SDS011;42117;50.360;3.508;2023-05-07T06:23:13;11.03;;;5.90;;
56201;SDS011;42117;50.360;3.508;2023-05-07T06:25:39;8.97;;;5.83;;
56201;SDS011;42117;50.360;3.508;2023-05-07T06:28:05;8.65;;;5.50;;
56201;SDS011;42117;50.360;3.508;2023-05-07T06:30:33;10.23;;;5.97;;
56201;SDS011;42117;50.360;3.508;2023-05-07T06:32:59;6.57;;;5.07;;
56201;SDS011;42117;50.360;3.508;2023-05-07T06:35:25;6.20;;;5.60;;
56201;SDS011;42117;50.360;3.508;2023-05-07T06:37:51;7.57;;;5.60;;
56201;SDS011;42117;50.360;3.508;2023-05-07T06:40:17;8.27;;;5.97;;
56201;SDS011;42117;50.360;3.508;2023-05-07T06:42:43;8.70;;;6.00;;
56201;SDS011;42117;50.360;3.508;2023-05-07T06:45:09;8.63;;;5.17;;
56201;SDS011;42117;50.360;3.508;2023-05-07T06:47:35;8.05;;;5.60;;
56201;SDS011;42117;50.360;3.508;2023-05-07T06:50:01;10.25;;;5.60;;
56201;SDS011;42117;50.360;3.508;2023-05-07T06:52:27;9.43;;;5.73;;
56201;SDS011;42117;50.360;3.508;2023-05-07T06:54:53;11.00;;;5.23;;
56201;SDS011;42117;50.360;3.508;2023-05-07T06:57:19;7.63;;;5.75;;
56201;SDS011;42117;50.360;3.508;2023-05-07T06:59:45;7.85;;;5.40;;
56201;SDS011;42117;50.360;3.508;2023-05-07T07:02:11;10.68;;;5.93;;
56201;SDS011;42117;50.360;3.508;2023-05-07T07:04:37;8.85;;;5.97;;
56201;SDS011;42117;50.360;3.508;2023-05-07T07:07:03;8.80;;;5.68;;
56201;SDS011;42117;50.360;3.508;2023-05-07T07:09:29;8.93;;;5.60;;
56201;SDS011;42117;50.360;3.508;2023-05-07T07:11:55;8.82;;;5.55;;
56201;SDS011;42117;50.360;3.508;2023-05-07T07:14:21;6.40;;;5.60;;
56201;SDS011;42117;50.360;3.508;2023-05-07T07:16:47;8.88;;;5.40;;
56201;SDS011;42117;50.360;3.508;2023-05-07T07:19:13;9.93;;;5.10;;
56201;SDS011;42117;50.360;3.508;2023-05-07T07:21:42;7.80;;;5.30;;
56201;SDS011;42117;50.360;3.508;2023-05-07T07:24:09;11.10;;;5.10;;
56201;SDS011;42117;50.360;3.508;2023-05-07T07:26:35;8.73;;;5.50;;
56201;SDS011;42117;50.360;3.508;2023-05-07T07:29:01;7.60;;;4.75;;
56201;SDS011;42117;50.360;3.508;2023-05-07T07:31:27;8.48;;;5.43;;
56201;SDS011;42117;50.360;3.508;2023-05-07T07:33:53;9.18;;;5.40;;
56201;SDS011;42117;50.360;3.508;2023-05-07T07:36:19;8.40;;;5.88;;
56201;SDS011;42117;50.360;3.508;2023-05-07T07:38:45;6.80;;;4.50;;
56201;SDS011;42117;50.360;3.508;2023-05-07T07:41:11;8.68;;;5.10;;
56201;SDS011;42117;50.360;3.508;2023-05-07T07:43:37;6.60;;;4.78;;
56201;SDS011;42117;50.360;3.508;2023-05-07T07:46:03;11.30;;;5.10;;
56201;SDS011;42117;50.360;3.508;2023-05-07T07:48:30;7.90;;;5.68;;
56201;SDS011;42117;50.360;3.508;2023-05-07T07:50:56;8.30;;;5.40;;
56201;SDS011;42117;50.360;3.508;2023-05-07T07:53:22;8.35;;;5.78;;
56201;SDS011;42117;50.360;3.508;2023-05-07T07:55:48;8.00;;;5.32;;
56201;SDS011;42117;50.360;3.508;2023-05-07T07:58:14;10.48;;;5.18;;
56201;SDS011;42117;50.360;3.508;2023-05-07T08:00:40;7.50;;;4.70;;
56201;SDS011;42117;50.360;3.508;2023-05-07T08:03:08;10.63;;;4.97;;
56201;SDS011;42117;50.360;3.508;2023-05-07T08:05:34;8.27;;;5.70;;
56201;SDS011;42117;50.360;3.508;2023-05-07T08:08:01;7.55;;;5.40;;
56201;SDS011;42117;50.360;3.508;2023-05-07T08:10:27;7.60;;;5.50;;
56201;SDS011;42117;50.360;3.508;2023-05-07T08:12:53;10.50;;;5.70;;
56201;SDS011;42117;50.360;3.508;2023-05-07T08:15:19;6.57;;;5.45;;
56201;SDS011;42117;50.360;3.508;2023-05-07T08:17:45;8.40;;;5.70;;
56201;SDS011;42117;50.360;3.508;2023-05-07T08:20:11;8.65;;;6.30;;
56201;SDS011;42117;50.360;3.508;2023-05-07T08:22:37;11.95;;;6.70;;
56201;SDS011;42117;50.360;3.508;2023-05-07T08:25:03;8.18;;;5.93;;
56201;SDS011;42117;50.360;3.508;2023-05-07T08:27:29;8.85;;;6.03;;
56201;SDS011;42117;50.360;3.508;2023-05-07T08:29:55;6.22;;;5.40;;
56201;SDS011;42117;50.360;3.508;2023-05-07T08:32:21;7.40;;;5.40;;
56201;SDS011;42117;50.360;3.508;2023-05-07T08:34:47;7.32;;;5.47;;
56201;SDS011;42117;50.360;3.508;2023-05-07T08:37:13;7.88;;;5.85;;
56201;SDS011;42117;50.360;3.508;2023-05-07T08:39:40;7.55;;;6.22;;
56201;SDS011;42117;50.360;3.508;2023-05-07T08:42:06;6.85;;;5.80;;
56201;SDS011;42117;50.360;3.508;2023-05-07T08:44:33;8.73;;;6.03;;
56201;SDS011;42117;50.360;3.508;2023-05-07T08:47:02;7.95;;;5.50;;
56201;SDS011;42117;50.360;3.508;2023-05-07T08:49:31;9.18;;;5.82;;
56201;SDS011;42117;50.360;3.508;2023-05-07T08:51:59;6.07;;;5.43;;
56201;SDS011;42117;50.360;3.508;2023-05-07T08:54:25;7.32;;;5.63;;
56201;SDS011;42117;50.360;3.508;2023-05-07T08:56:51;9.18;;;5.15;;
56201;SDS011;42117;50.360;3.508;2023-05-07T08:59:17;7.88;;;5.32;;
56201;SDS011;42117;50.360;3.508;2023-05-07T09:01:43;6.27;;;5.10;;
56201;SDS011;42117;50.360;3.508;2023-05-07T09:04:09;9.35;;;5.45;;
56201;SDS011;42117;50.360;3.508;2023-05-07T09:06:37;7.45;;;5.75;;
56201;SDS011;42117;50.360;3.508;2023-05-07T09:09:06;9.43;;;5.97;;
56201;SDS011;42117;50.360;3.508;2023-05-07T09:11:33;7.97;;;5.00;;
56201;SDS011;42117;50.360;3.508;2023-05-07T09:13:59;6.15;;;5.55;;
56201;SDS011;42117;50.360;3.508;2023-05-07T09:16:29;11.57;;;4.78;;
56201;SDS011;42117;50.360;3.508;2023-05-07T09:18:56;6.22;;;4.57;;
56201;SDS011;42117;50.360;3.508;2023-05-07T09:21:22;6.80;;;4.50;;
56201;SDS011;42117;50.360;3.508;2023-05-07T09:23:51;4.18;;;3.83;;
56201;SDS011;42117;50.360;3.508;2023-05-07T09:26:18;4.20;;;3.90;;
56201;SDS011;42117;50.360;3.508;2023-05-07T09:28:46;5.85;;;3.78;;
56201;SDS011;42117;50.360;3.508;2023-05-07T09:31:12;4.97;;;3.88;;
56201;SDS011;42117;50.360;3.508;2023-05-07T09:33:39;4.55;;;3.95;;
56201;SDS011;42117;50.360;3.508;2023-05-07T09:36:05;3.90;;;3.50;;
56201;SDS011;42117;50.360;3.508;2023-05-07T09:38:35;6.77;;;3.70;;
56201;SDS011;42117;50.360;3.508;2023-05-07T09:43:31;4.95;;;3.42;;
56201;SDS011;42117;50.360;3.508;2023-05-07T09:45:58;5.22;;;3.70;;
56201;SDS011;42117;50.360;3.508;2023-05-07T09:48:25;4.28;;;3.88;;
56201;SDS011;42117;50.360;3.508;2023-05-07T09:50:51;4.30;;;3.90;;
56201;SDS011;42117;50.360;3.508;2023-05-07T09:53:24;5.07;;;3.70;;
56201;SDS011;42117;50.360;3.508;2023-05-07T09:55:50;3.95;;;3.65;;
56201;SDS011;42117;50.360;3.508;2023-05-07T09:58:17;4.28;;;3.80;;
56201;SDS011;42117;50.360;3.508;2023-05-07T10:00:44;4.63;;;4.05;;
56201;SDS011;42117;50.360;3.508;2023-05-07T10:03:11;4.13;;;3.70;;
56201;SDS011;42117;50.360;3.508;2023-05-07T10:05:39;3.35;;;3.15;;
56201;SDS011;42117;50.360;3.508;2023-05-07T10:08:05;4.50;;;3.38;;
56201;SDS011;42117;50.360;3.508;2023-05-07T10:10:32;3.80;;;3.50;;
56201;SDS011;42117;50.360;3.508;2023-05-07T10:12:59;4.20;;;3.53;;
56201;SDS011;42117;50.360;3.508;2023-05-07T10:15:26;4.22;;;3.47;;
56201;SDS011;42117;50.360;3.508;2023-05-07T10:17:52;4.70;;;3.88;;
56201;SDS011;42117;50.360;3.508;2023-05-07T10:20:18;3.53;;;3.30;;
56201;SDS011;42117;50.360;3.508;2023-05-07T10:22:45;5.10;;;3.83;;
56201;SDS011;42117;50.360;3.508;2023-05-07T10:25:16;4.88;;;3.50;;
56201;SDS011;42117;50.360;3.508;2023-05-07T10:27:43;5.25;;;3.88;;
56201;SDS011;42117;50.360;3.508;2023-05-07T10:32:55;3.83;;;3.53;;
56201;SDS011;42117;50.360;3.508;2023-05-07T10:35:24;3.72;;;3.40;;
56201;SDS011;42117;50.360;3.508;2023-05-07T10:37:51;5.47;;;4.03;;
56201;SDS011;42117;50.360;3.508;2023-05-07T10:40:18;4.30;;;3.67;;
56201;SDS011;42117;50.360;3.508;2023-05-07T10:42:58;3.70;;;3.40;;
56201;SDS011;42117;50.360;3.508;2023-05-07T10:45:25;3.93;;;3.30;;
56201;SDS011;42117;50.360;3.508;2023-05-07T10:50:29;3.10;;;2.78;;
56201;SDS011;42117;50.360;3.508;2023-05-07T10:55:40;6.30;;;3.25;;
56201;SDS011;42117;50.360;3.508;2023-05-07T11:00:47;3.17;;;2.90;;
56201;SDS011;42117;50.360;3.508;2023-05-07T11:03:14;3.80;;;3.10;;
56201;SDS011;42117;50.360;3.508;2023-05-07T11:05:40;2.80;;;2.57;;
56201;SDS011;42117;50.360;3.508;2023-05-07T11:08:07;3.00;;;2.72;;
56201;SDS011;42117;50.360;3.508;2023-05-07T11:10:52;3.17;;;2.92;;
56201;SDS011;42117;50.360;3.508;2023-05-07T11:13:42;5.13;;;2.60;;
56201;SDS011;42117;50.360;3.508;2023-05-07T11:16:05;2.70;;;2.33;;
56201;SDS011;42117;50.360;3.508;2023-05-07T11:18:48;4.63;;;2.30;;
56201;SDS011;42117;50.360;3.508;2023-05-07T11:24:00;2.17;;;2.08;;
56201;SDS011;42117;50.360;3.508;2023-05-07T11:26:27;2.50;;;2.28;;
56201;SDS011;42117;50.360;3.508;2023-05-07T11:28:54;2.10;;;2.00;;
56201;SDS011;42117;50.360;3.508;2023-05-07T11:31:20;5.28;;;2.28;;
56201;SDS011;42117;50.360;3.508;2023-05-07T11:33:47;2.70;;;2.60;;
56201;SDS011;42117;50.360;3.508;2023-05-07T11:36:13;3.03;;;2.80;;
56201;SDS011;42117;50.360;3.508;2023-05-07T11:38:39;4.18;;;2.75;;
56201;SDS011;42117;50.360;3.508;2023-05-07T11:41:06;2.70;;;2.60;;
56201;SDS011;42117;50.360;3.508;2023-05-07T11:43:33;2.47;;;2.38;;
56201;SDS011;42117;50.360;3.508;2023-05-07T11:48:32;2.90;;;2.60;;
56201;SDS011;42117;50.360;3.508;2023-05-07T11:53:25;3.03;;;2.83;;
56201;SDS011;42117;50.360;3.508;2023-05-07T11:55:57;2.92;;;2.80;;
56201;SDS011;42117;50.360;3.508;2023-05-07T11:58:24;2.90;;;2.70;;
56201;SDS011;42117;50.360;3.508;2023-05-07T12:00:53;2.70;;;2.50;;
56201;SDS011;42117;50.360;3.508;2023-05-07T12:03:20;2.43;;;2.30;;
56201;SDS011;42117;50.360;3.508;2023-05-07T12:05:46;2.83;;;2.63;;
56201;SDS011;42117;50.360;3.508;2023-05-07T12:08:16;2.80;;;2.60;;
56201;SDS011;42117;50.360;3.508;2023-05-07T12:10:43;2.90;;;2.75;;
56201;SDS011;42117;50.360;3.508;2023-05-07T12:13:15;2.50;;;2.40;;
56201;SDS011;42117;50.360;3.508;2023-05-07T12:15:42;2.50;;;2.40;;
56201;SDS011;42117;50.360;3.508;2023-05-07T12:18:08;2.53;;;2.42;;
56201;SDS011;42117;50.360;3.508;2023-05-07T12:20:35;2.70;;;2.60;;
56201;SDS011;42117;50.360;3.508;2023-05-07T12:23:01;4.82;;;3.10;;
56201;SDS011;42117;50.360;3.508;2023-05-07T12:25:30;3.10;;;2.90;;
56201;SDS011;42117;50.360;3.508;2023-05-07T12:27:57;2.97;;;2.78;;
56201;SDS011;42117;50.360;3.508;2023-05-07T12:30:24;2.83;;;2.72;;
56201;SDS011;42117;50.360;3.508;2023-05-07T12:32:53;3.00;;;2.80;;
56201;SDS011;42117;50.360;3.508;2023-05-07T12:35:35;2.97;;;2.65;;
56201;SDS011;42117;50.360;3.508;2023-05-07T12:38:02;2.83;;;2.63;;
56201;SDS011;42117;50.360;3.508;2023-05-07T12:40:42;3.22;;;3.03;;
56201;SDS011;42117;50.360;3.508;2023-05-07T12:43:23;2.95;;;2.75;;
56201;SDS011;42117;50.360;3.508;2023-05-07T12:45:50;2.63;;;2.50;;
56201;SDS011;42117;50.360;3.508;2023-05-07T12:48:16;3.33;;;2.95;;
56201;SDS011;42117;50.360;3.508;2023-05-07T12:50:42;3.70;;;2.70;;
56201;SDS011;42117;50.360;3.508;2023-05-07T12:53:09;2.80;;;2.50;;
56201;SDS011;42117;50.360;3.508;2023-05-07T12:55:49;2.92;;;2.72;;
56201;SDS011;42117;50.360;3.508;2023-05-07T12:58:23;3.10;;;2.80;;
56201;SDS011;42117;50.360;3.508;2023-05-07T13:00:50;2.63;;;2.50;;
56201;SDS011;42117;50.360;3.508;2023-05-07T13:05:49;4.03;;;2.95;;
56201;SDS011;42117;50.360;3.508;2023-05-07T13:08:25;3.45;;;3.22;;
56201;SDS011;42117;50.360;3.508;2023-05-07T13:10:51;3.20;;;3.00;;
56201;SDS011;42117;50.360;3.508;2023-05-07T13:13:18;3.10;;;2.73;;
56201;SDS011;42117;50.360;3.508;2023-05-07T13:15:45;3.40;;;2.60;;
56201;SDS011;42117;50.360;3.508;2023-05-07T13:18:11;3.42;;;2.75;;
56201;SDS011;42117;50.360;3.508;2023-05-07T13:20:37;3.15;;;2.95;;
56201;SDS011;42117;50.360;3.508;2023-05-07T13:23:03;2.83;;;2.63;;
56201;SDS011;42117;50.360;3.508;2023-05-07T13:25:29;2.90;;;2.70;;
56201;SDS011;42117;50.360;3.508;2023-05-07T13:27:58;4.00;;;2.80;;
56201;SDS011;42117;50.360;3.508;2023-05-07T13:30:24;3.00;;;2.70;;
56201;SDS011;42117;50.360;3.508;2023-05-07T13:32:51;2.80;;;2.60;;
56201;SDS011;42117;50.360;3.508;2023-05-07T13:35:17;3.10;;;2.90;;
56201;SDS011;42117;50.360;3.508;2023-05-07T13:37:43;3.55;;;3.10;;
56201;SDS011;42117;50.360;3.508;2023-05-07T13:40:09;3.00;;;2.70;;
56201;SDS011;42117;50.360;3.508;2023-05-07T13:42:35;2.87;;;2.70;;
56201;SDS011;42117;50.360;3.508;2023-05-07T13:45:01;2.58;;;2.45;;
56201;SDS011;42117;50.360;3.508;2023-05-07T13:47:30;2.77;;;2.67;;
56201;SDS011;42117;50.360;3.508;2023-05-07T13:49:56;2.70;;;2.50;;
56201;SDS011;42117;50.360;3.508;2023-05-07T13:52:22;4.50;;;2.25;;
56201;SDS011;42117;50.360;3.508;2023-05-07T13:54:48;2.30;;;2.20;;
56201;SDS011;42117;50.360;3.508;2023-05-07T13:57:14;2.67;;;2.58;;
56201;SDS011;42117;50.360;3.508;2023-05-07T13:59:40;3.28;;;2.85;;
56201;SDS011;42117;50.360;3.508;2023-05-07T14:02:06;2.70;;;2.50;;
56201;SDS011;42117;50.360;3.508;2023-05-07T14:04:34;3.50;;;2.67;;
56201;SDS011;42117;50.360;3.508;2023-05-07T14:07:00;5.38;;;3.88;;
56201;SDS011;42117;50.360;3.508;2023-05-07T14:09:26;5.85;;;2.88;;
56201;SDS011;42117;50.360;3.508;2023-05-07T14:11:52;2.60;;;2.40;;
56201;SDS011;42117;50.360;3.508;2023-05-07T14:14:18;2.40;;;2.20;;
56201;SDS011;42117;50.360;3.508;2023-05-07T14:16:44;2.88;;;2.78;;
56201;SDS011;42117;50.360;3.508;2023-05-07T14:19:11;2.93;;;2.73;;
56201;SDS011;42117;50.360;3.508;2023-05-07T14:21:37;4.18;;;2.95;;
56201;SDS011;42117;50.360;3.508;2023-05-07T14:24:03;3.40;;;3.10;;
56201;SDS011;42117;50.360;3.508;2023-05-07T14:26:29;2.42;;;2.33;;
56201;SDS011;42117;50.360;3.508;2023-05-07T14:28:55;2.35;;;2.25;;
56201;SDS011;42117;50.360;3.508;2023-05-07T14:31:23;2.60;;;2.50;;
56201;SDS011;42117;50.360;3.508;2023-05-07T14:33:49;2.60;;;2.43;;
56201;SDS011;42117;50.360;3.508;2023-05-07T14:36:18;2.50;;;2.40;;
56201;SDS011;42117;50.360;3.508;2023-05-07T14:38:50;3.63;;;3.35;;
56201;SDS011;42117;50.360;3.508;2023-05-07T14:41:16;5.03;;;3.40;;
56201;SDS011;42117;50.360;3.508;2023-05-07T14:43:42;2.72;;;2.60;;
56201;SDS011;42117;50.360;3.508;2023-05-07T14:46:14;3.67;;;3.00;;
56201;SDS011;42117;50.360;3.508;2023-05-07T14:48:40;3.45;;;3.15;;
56201;SDS011;42117;50.360;3.508;2023-05-07T14:51:06;3.67;;;3.38;;
56201;SDS011;42117;50.360;3.508;2023-05-07T14:53:32;2.97;;;2.80;;
56201;SDS011;42117;50.360;3.508;2023-05-07T14:55:58;3.10;;;2.90;;
56201;SDS011;42117;50.360;3.508;2023-05-07T14:58:25;3.00;;;2.83;;
56201;SDS011;42117;50.360;3.508;2023-05-07T15:00:51;2.60;;;2.50;;
56201;SDS011;42117;50.360;3.508;2023-05-07T15:03:17;2.42;;;2.30;;
56201;SDS011;42117;50.360;3.508;2023-05-07T15:05:43;3.27;;;2.47;;
56201;SDS011;42117;50.360;3.508;2023-05-07T15:08:09;2.40;;;2.30;;